Flight Track Log - Related Links

Times and Time Zones

All times are in EDT time to prevent confusion due to time zone crossing. See the N169JD flight status page for this flight to view local times or setup timezone preferences in your user account.

Time Position Orientation Groundspeed Altitude Reporting Facility
EDT Latitude Longitude Course Direction KTS MPH feet Rate Location/Type
Wed 10:40:20 AM 36.7992 -119.7617 236° Southwest 156 180 1,900  Level Oakland Center
Wed 10:41:21 AM 36.7789 -119.7997 236° Southwest 190 219 3,000 1,463 Climbing Oakland Center
Wed 10:42:23 AM 36.7233 -119.7575 149° Southeast 198 228 4,900 1,659 Climbing Oakland Center
Wed 10:43:24 AM 36.6828 -119.7083 136° Southeast 204 235 6,400 1,475 Climbing Oakland Center
Wed 10:44:25 AM 36.6397 -119.6597 138° Southeast 207 238 7,900 1,463 Climbing Oakland Center
Wed 10:45:27 AM 36.5858 -119.6364 161° South 206 237 9,400 1,415 Climbing Oakland Center
Wed 10:46:28 AM 36.5286 -119.6183 166° South 211 243 10,800 1,377 Climbing Oakland Center
Wed 10:47:29 AM 36.4742 -119.5903 157° South 212 244 12,200 1,377 Climbing Oakland Center
Wed 10:48:30 AM 36.4178 -119.5617 158° South 218 251 13,600 1,463 Climbing Oakland Center
Wed 10:49:32 AM 36.3611 -119.5344 159° South 217 250 15,200 1,512 Climbing Oakland Center
Wed 10:50:33 AM 36.3050 -119.5050 157° South 217 250 16,700 1,377 Climbing Oakland Center
Wed 10:51:34 AM 36.2464 -119.4769 159° South 224 258 18,000 1,525 Climbing Oakland Center
Wed 10:52:35 AM 36.1747 -119.4406 158° South 231 266 19,800 1,512 Climbing Oakland Center
Wed 10:53:37 AM 36.1125 -119.4108 159° South 241 277 21,100 1,463 Climbing Oakland Center
Wed 10:54:38 AM 36.0494 -119.3781 157° South 245 282 22,800 1,525 Climbing Oakland Center
Wed 10:55:39 AM 35.9922 -119.3514 159° South 223 257 24,200 1,082 Climbing Oakland Center
Wed 10:56:40 AM 35.9303 -119.3225 159° South 230 265 25,000 885 Climbing Oakland Center
Wed 10:57:41 AM 35.8606 -119.2733 150° Southeast 273 314 26,000 1,122 Climbing Oakland Center
Wed 10:58:43 AM 35.7956 -119.2281 151° Southeast 273 314 27,300 1,073 Climbing Oakland Center
Wed 10:59:44 AM 35.7308 -119.1833 151° Southeast 268 308 28,200 689 Climbing Oakland Center
Wed 11:00:45 AM 35.6619 -119.1361 151° Southeast 278 320 28,700 557 Climbing Oakland Center
Wed 11:01:21 AM 35.6183 -119.1067 151° Southeast 288 331 29,100 735 Climbing Los Angeles Center
Wed 11:02:23 AM 35.5475 -119.0581 151° Southeast 291 335 29,900 871 Climbing Los Angeles Center
Wed 11:03:25 AM 35.4667 -119.0011 150° Southeast 280 322 30,900 919 Climbing Los Angeles Center
Wed 11:04:27 AM 35.3997 -118.9558 151° Southeast 276 318 31,800 823 Climbing Los Angeles Center
Wed 11:05:29 AM 35.3339 -118.9108 151° Southeast 272 313 32,600 726 Climbing Los Angeles Center
Wed 11:06:31 AM 35.2703 -118.8667 150° Southeast 266 306 33,300 629 Climbing Los Angeles Center
Wed 11:07:33 AM 35.2064 -118.8236 151° Southeast 263 303 33,900 581 Climbing Los Angeles Center
Wed 11:08:35 AM 35.1403 -118.7794 151° Southeast 267 307 34,500 532 Climbing Los Angeles Center
Wed 11:09:37 AM 35.0761 -118.7350 150° Southeast 266 306 35,000 242 Climbing Los Angeles Center
Wed 11:10:39 AM 34.9961 -118.6803 151° Southeast 273 314 35,000  Level Los Angeles Center
Wed 11:11:41 AM 34.9253 -118.6331 151° Southeast 287 330 35,000  Level Los Angeles Center
Wed 11:12:43 AM 34.8550 -118.5861 151° Southeast 295 339 35,000  Level Los Angeles Center
Wed 11:13:45 AM 34.7817 -118.5367 151° Southeast 300 345 35,000  Level Los Angeles Center
Wed 11:14:47 AM 34.7089 -118.4867 151° Southeast 302 348 35,000  Level Los Angeles Center
Wed 11:15:49 AM 34.6192 -118.4289 152° Southeast 303 349 35,000  Level Los Angeles Center
Wed 11:16:51 AM 34.5453 -118.3775 150° Southeast 304 350 35,000  Level Los Angeles Center
Wed 11:17:53 AM 34.4717 -118.3267 150° Southeast 305 351 35,000  Level Los Angeles Center
Wed 11:18:55 AM 34.3967 -118.2767 151° Southeast 306 352 35,000  Level Los Angeles Center
Wed 11:19:57 AM 34.3225 -118.2269 151° Southeast 305 351 35,000  Level Los Angeles Center
Wed 11:20:59 AM 34.2500 -118.1722 148° Southeast 306 352 35,000  Level Los Angeles Center
Wed 11:22:01 AM 34.1633 -118.1086 149° Southeast 303 349 35,000  Level Los Angeles Center
Wed 11:23:03 AM 34.0903 -118.0564 149° Southeast 303 349 35,000  Level Los Angeles Center
Wed 11:24:05 AM 34.0178 -118.0033 149° Southeast 303 349 35,000  Level Los Angeles Center
Wed 11:25:07 AM 33.9475 -117.9508 148° Southeast 298 343 35,000  Level Los Angeles Center
Wed 11:26:08 AM 33.8756 -117.8983 149° Southeast 299 344 35,000  Level Los Angeles Center
Wed 11:27:10 AM 33.8036 -117.8469 149° Southeast 301 346 35,000  Level Los Angeles Center
Wed 11:28:12 AM 33.7297 -117.7967 150° Southeast 306 352 35,000  Level Los Angeles Center
Wed 11:29:14 AM 33.6450 -117.7350 149° Southeast 298 343 35,000  Level Los Angeles Center
Wed 11:30:16 AM 33.5742 -117.6842 149° Southeast 297 342 35,000  Level Los Angeles Center
Wed 11:31:18 AM 33.5036 -117.6342 149° Southeast 295 339 35,000  Level Los Angeles Center
Wed 11:32:20 AM 33.4331 -117.5842 149° Southeast 295 339 35,000  Level Los Angeles Center
Wed 11:33:22 AM 33.3631 -117.5347 149° Southeast 293 337 35,000  Level Los Angeles Center
Wed 11:34:24 AM 33.2933 -117.4856 149° Southeast 291 335 35,000  Level Los Angeles Center
Wed 11:35:26 AM 33.2100 -117.4258 149° Southeast 291 335 35,000  Level Los Angeles Center
Wed 11:36:28 AM 33.1397 -117.3756 149° Southeast 294 338 35,000  Level Los Angeles Center
Wed 11:37:30 AM 33.0703 -117.3269 150° Southeast 292 336 35,000  Level Los Angeles Center
Wed 11:38:32 AM 33.0011 -117.2783 149° Southeast 290 334 35,000  Level Los Angeles Center
Wed 11:39:34 AM 32.9311 -117.2292 149° Southeast 292 336 35,000  Level Los Angeles Center
Wed 11:40:36 AM 32.8611 -117.1814 150° Southeast 290 334 35,000  Level Los Angeles Center
Wed 11:41:39 AM 32.7794 -117.1208 148° Southeast 293 337 35,000  Level Los Angeles Center
Wed 11:42:41 AM 32.7106 -117.0714 149° Southeast 291 335 35,000  Level Los Angeles Center
Wed 11:43:43 AM 32.6392 -117.0231 150° Southeast 294 338 35,000  Level Los Angeles Center
Wed 11:45:00 AM 32.5487 -116.9653 140° Southeast  Level FlightAware Approximate
Wed 11:52:00 AM 32.0088 -116.6843 157° South  Level FlightAware Approximate
Wed 11:53:00 AM 31.9311 -116.6452 157° South  Level FlightAware Approximate
Wed 11:54:00 AM 31.8535 -116.6063 157° South  Level FlightAware Approximate
Wed 11:55:00 AM 31.7759 -116.5674 157° South  Level FlightAware Approximate
Wed 11:56:00 AM 31.6982 -116.5285 157° South  Level FlightAware Approximate
Wed 11:57:00 AM 31.6205 -116.4898 157° South  Level FlightAware Approximate
Wed 11:58:00 AM 31.5429 -116.4510 157° South  Level FlightAware Approximate
Wed 11:59:00 AM 31.4652 -116.4124 157° South  Level FlightAware Approximate
Wed 12:00:00 PM 31.3875 -116.3738 157° South  Level FlightAware Approximate
Wed 12:01:00 PM 31.3098 -116.3353 157° South  Level FlightAware Approximate
Wed 12:02:00 PM 31.2320 -116.2968 157° South  Level FlightAware Approximate
Wed 12:03:00 PM 31.1543 -116.2585 157° South  Level FlightAware Approximate
Wed 12:04:00 PM 31.0765 -116.2201 157° South  Level FlightAware Approximate
Wed 12:05:00 PM 30.9988 -116.1818 157° South  Level FlightAware Approximate
Wed 12:06:00 PM 30.9210 -116.1436 157° South  Level FlightAware Approximate
Wed 12:07:00 PM 30.8427 -116.1070 158° South  Level FlightAware Approximate
Wed 12:08:00 PM 30.7642 -116.0709 158° South  Level FlightAware Approximate
Wed 12:09:00 PM 30.6857 -116.0349 158° South  Level FlightAware Approximate
Wed 12:10:00 PM 30.6072 -115.9990 158° South  Level FlightAware Approximate
Wed 12:11:00 PM 30.5287 -115.9631 159° South  Level FlightAware Approximate
Wed 12:12:00 PM 30.4632 -115.9048 133° Southeast  Level FlightAware Approximate
Wed 12:13:00 PM 30.4051 -115.8338 133° Southeast  Level FlightAware Approximate
Wed 12:14:00 PM 30.3470 -115.7628 133° Southeast  Level FlightAware Approximate
Wed 12:15:00 PM 30.2889 -115.6920 134° Southeast  Level FlightAware Approximate
Wed 12:16:00 PM 30.2307 -115.6212 134° Southeast  Level FlightAware Approximate
Wed 12:17:00 PM 30.1725 -115.5505 134° Southeast  Level FlightAware Approximate
Wed 12:18:00 PM 30.1143 -115.4799 134° Southeast  Level FlightAware Approximate
Wed 12:19:00 PM 30.0560 -115.4093 134° Southeast  Level FlightAware Approximate
Wed 12:20:00 PM 29.9977 -115.3389 134° Southeast  Level FlightAware Approximate
Wed 12:21:00 PM 29.9393 -115.2685 134° Southeast  Level FlightAware Approximate
Wed 12:22:00 PM 29.8809 -115.1982 134° Southeast  Level FlightAware Approximate
Wed 12:23:00 PM 29.8225 -115.1280 134° Southeast  Level FlightAware Approximate
Wed 12:24:00 PM 29.7640 -115.0579 134° Southeast  Level FlightAware Approximate
Wed 12:25:00 PM 29.7055 -114.9878 134° Southeast  Level FlightAware Approximate
Wed 12:26:00 PM 29.6470 -114.9179 134° Southeast  Level FlightAware Approximate
Wed 12:27:00 PM 29.5884 -114.8480 134° Southeast  Level FlightAware Approximate
Wed 12:28:00 PM 29.5298 -114.7782 134° Southeast  Level FlightAware Approximate
Wed 12:29:00 PM 29.4712 -114.7085 134° Southeast  Level FlightAware Approximate
Wed 12:30:00 PM 29.4129 -114.6385 134° Southeast  Level FlightAware Approximate
Wed 12:31:00 PM 29.3547 -114.5683 134° Southeast  Level FlightAware Approximate
Wed 12:32:00 PM 29.2965 -114.4982 134° Southeast  Level FlightAware Approximate
Wed 12:33:00 PM 29.2383 -114.4281 134° Southeast  Level FlightAware Approximate
Wed 12:34:00 PM 29.1800 -114.3582 134° Southeast  Level FlightAware Approximate
Wed 12:35:00 PM 29.1217 -114.2884 134° Southeast  Level FlightAware Approximate
Wed 12:36:00 PM 29.0634 -114.2186 134° Southeast  Level FlightAware Approximate
Wed 12:37:00 PM 29.0050 -114.1489 134° Southeast  Level FlightAware Approximate
Wed 12:38:00 PM 28.9464 -114.0795 137° Southeast  Level FlightAware Approximate
Wed 12:39:00 PM 28.8849 -114.0134 137° Southeast  Level FlightAware Approximate
Wed 12:40:00 PM 28.8234 -113.9475 137° Southeast  Level FlightAware Approximate
Wed 12:41:00 PM 28.7618 -113.8816 137° Southeast  Level FlightAware Approximate
Wed 12:42:00 PM 28.7009 -113.8151 135° Southeast  Level FlightAware Approximate
Wed 12:43:00 PM 28.6416 -113.7466 135° Southeast  Level FlightAware Approximate
Wed 12:44:00 PM 28.5823 -113.6782 135° Southeast  Level FlightAware Approximate
Wed 12:45:00 PM 28.5230 -113.6098 135° Southeast  Level FlightAware Approximate
Wed 12:46:00 PM 28.4631 -113.5423 136° Southeast  Level FlightAware Approximate
Wed 12:47:00 PM 28.4027 -113.4752 136° Southeast  Level FlightAware Approximate
Wed 12:48:00 PM 28.3423 -113.4082 136° Southeast  Level FlightAware Approximate
Wed 12:49:00 PM 28.2814 -113.3419 136° Southeast  Level FlightAware Approximate
Wed 12:50:00 PM 28.2205 -113.2755 136° Southeast  Level FlightAware Approximate
Wed 12:51:00 PM 28.1596 -113.2093 136° Southeast  Level FlightAware Approximate
Wed 12:52:00 PM 28.0987 -113.1431 136° Southeast  Level FlightAware Approximate
Wed 12:53:00 PM 28.0377 -113.0770 136° Southeast  Level FlightAware Approximate
Wed 12:54:00 PM 27.9767 -113.0110 136° Southeast  Level FlightAware Approximate
Wed 12:55:00 PM 27.9156 -112.9450 136° Southeast  Level FlightAware Approximate
Wed 12:56:00 PM 27.8545 -112.8791 136° Southeast  Level FlightAware Approximate
Wed 12:57:00 PM 27.7934 -112.8133 136° Southeast  Level FlightAware Approximate
Wed 12:58:00 PM 27.7326 -112.7472 135° Southeast  Level FlightAware Approximate
Wed 12:59:00 PM 27.6726 -112.6802 135° Southeast  Level FlightAware Approximate
Wed 01:00:00 PM 27.6125 -112.6133 135° Southeast  Level FlightAware Approximate
Wed 01:01:00 PM 27.5525 -112.5464 135° Southeast  Level FlightAware Approximate
Wed 01:02:00 PM 27.4923 -112.4796 135° Southeast  Level FlightAware Approximate
Wed 01:03:00 PM 27.4322 -112.4129 135° Southeast  Level FlightAware Approximate
Wed 01:04:00 PM 27.3720 -112.3463 135° Southeast  Level FlightAware Approximate
Wed 01:05:00 PM 27.3118 -112.2797 135° Southeast  Level FlightAware Approximate
Wed 01:06:00 PM 27.2416 -112.2277 149° Southeast  Level FlightAware Approximate
Wed 01:07:00 PM 27.1691 -112.1794 149° Southeast  Level FlightAware Approximate
Wed 01:08:00 PM 27.0975 -112.1290 147° Southeast  Level FlightAware Approximate
Wed 01:09:00 PM 27.0264 -112.0780 147° Southeast  Level FlightAware Approximate
Wed 01:10:00 PM 26.9553 -112.0271 147° Southeast  Level FlightAware Approximate
Wed 01:11:00 PM 26.8841 -111.9762 147° Southeast  Level FlightAware Approximate
Wed 01:12:00 PM 26.8129 -111.9255 148° Southeast  Level FlightAware Approximate
Wed 01:13:00 PM 26.7417 -111.8747 148° Southeast  Level FlightAware Approximate
Wed 01:14:00 PM 26.6705 -111.8241 148° Southeast  Level FlightAware Approximate
Wed 01:15:00 PM 26.5992 -111.7735 148° Southeast  Level FlightAware Approximate
Wed 01:16:00 PM 26.5280 -111.7229 148° Southeast  Level FlightAware Approximate
Wed 01:17:00 PM 26.4567 -111.6724 148° Southeast  Level FlightAware Approximate
Wed 01:18:00 PM 26.3854 -111.6220 148° Southeast  Level FlightAware Approximate
Wed 01:19:00 PM 26.3141 -111.5717 148° Southeast  Level FlightAware Approximate
Wed 01:20:00 PM 26.2424 -111.5219 148° Southeast  Level FlightAware Approximate
Wed 01:21:00 PM 26.1705 -111.4727 148° Southeast  Level FlightAware Approximate
Wed 01:22:00 PM 26.0986 -111.4235 148° Southeast  Level FlightAware Approximate
Wed 01:23:00 PM 26.0267 -111.3743 148° Southeast  Level FlightAware Approximate
Wed 01:24:00 PM 25.9537 -111.3278 159° South  Level FlightAware Approximate
Wed 01:25:00 PM 25.8749 -111.2940 159° South  Level FlightAware Approximate
Wed 01:26:00 PM 25.8006 -111.2504 149° Southeast  Level FlightAware Approximate
Wed 01:27:00 PM 25.7245 -111.2097 154° Southeast  Level FlightAware Approximate
Wed 01:28:00 PM 25.6485 -111.1691 154° Southeast  Level FlightAware Approximate
Wed 01:29:00 PM 25.5724 -111.1286 154° Southeast  Level FlightAware Approximate
Wed 01:30:00 PM 25.4963 -111.0883 155° Southeast  Level FlightAware Approximate
Wed 01:31:00 PM 25.4200 -111.0481 155° Southeast  Level FlightAware Approximate
Wed 01:32:00 PM 25.3438 -111.0080 155° Southeast  Level FlightAware Approximate
Wed 01:33:00 PM 25.2676 -110.9680 155° Southeast  Level FlightAware Approximate
Wed 01:34:00 PM 25.1919 -110.9269 153° Southeast  Level FlightAware Approximate
Wed 01:35:00 PM 25.1165 -110.8849 153° Southeast  Level FlightAware Approximate
Wed 01:36:00 PM 25.0411 -110.8430 153° Southeast  Level FlightAware Approximate
Wed 01:37:00 PM 24.9658 -110.8011 153° Southeast  Level FlightAware Approximate
Wed 01:38:00 PM 24.8904 -110.7593 153° Southeast  Level FlightAware Approximate
Wed 01:39:00 PM 24.8150 -110.7175 153° Southeast  Level FlightAware Approximate
Wed 01:40:00 PM 24.7396 -110.6757 153° Southeast  Level FlightAware Approximate
Wed 01:41:00 PM 24.6643 -110.6338 153° Southeast  Level FlightAware Approximate
Wed 01:42:00 PM 24.5881 -110.5940 156° South  Level FlightAware Approximate
Wed 01:43:00 PM 24.5113 -110.5556 156° South  Level FlightAware Approximate
Wed 01:44:00 PM 24.4344 -110.5172 156° South  Level FlightAware Approximate
Wed 01:45:00 PM 24.3591 -110.4754 153° Southeast  Level FlightAware Approximate
Wed 01:46:00 PM 24.2838 -110.4336 153° Southeast  Level FlightAware Approximate
Wed 01:47:00 PM 24.2091 -110.3954 151° Southeast  Level FlightAware Approximate
Wed 01:48:00 PM 24.1350 -110.3510 151° Southeast  Level FlightAware Approximate
Wed 01:49:00 PM 24.0727 -110.3625 270° West  Level Estimated
Wed 01:50:00 PM 24.0727 -110.3625 270° West  Level Estimated
Wed 01:51:00 PM 24.0727 -110.3625 270° West  Level Estimated
Wed 01:52:00 PM 24.0727 -110.3625 270° West  Level Estimated
Wed 01:53:00 PM 24.0727 -110.3625 270° West  Level Estimated
Wed 01:54:00 PM 24.0727 -110.3625 270° West  Level Estimated
Wed 01:55:00 PM 24.0727 -110.3625 270° West  Level Estimated
Wed 01:56:00 PM 24.0727 -110.3625 270° West  Level Estimated
Wed 01:57:00 PM 24.0727 -110.3625 270° West  Level Estimated
Wed 01:58:00 PM 24.0727 -110.3625 270° West  Level Estimated
Wed 01:59:00 PM 24.0727 -110.3625 270° West  Level Estimated
Wed 02:00:00 PM 24.0727 -110.3625 270° West  Level Estimated
Wed 02:01:00 PM 24.0727 -110.3625 270° West  Level Estimated
Wed 02:02:00 PM 24.0727 -110.3625 270° West  Level Estimated
Wed 02:03:00 PM 24.0727 -110.3625 270° West  Level Estimated

Login

Don't have an account? Register now (free) for customized features, flight alerts, and more!